createdAt,value
2023-05-24T00:00:13.461Z,0.00
2023-05-24T00:01:13.445Z,0.00
2023-05-24T00:02:13.428Z,0.00
2023-05-24T00:03:13.524Z,0.00
2023-05-24T00:04:13.555Z,0.00
2023-05-24T00:05:13.420Z,0.00
2023-05-24T00:06:13.392Z,0.00
2023-05-24T00:07:13.387Z,0.00
2023-05-24T00:08:13.370Z,0.00
2023-05-24T00:09:13.404Z,0.00
2023-05-24T00:10:13.359Z,0.00
2023-05-24T00:11:13.345Z,0.00
2023-05-24T00:12:13.330Z,0.00
2023-05-24T00:13:13.336Z,0.00
2023-05-24T00:14:13.321Z,0.00
2023-05-24T00:15:13.298Z,0.00
2023-05-24T00:16:13.293Z,0.00
2023-05-24T00:17:13.279Z,0.00
2023-05-24T00:18:13.278Z,0.00
2023-05-24T00:19:13.268Z,0.00
2023-05-24T00:20:13.298Z,0.00
2023-05-24T00:21:13.234Z,0.00
2023-05-24T00:22:13.228Z,0.00
2023-05-24T00:23:13.215Z,0.00
2023-05-24T00:24:14.212Z,0.00
2023-05-24T00:25:13.197Z,0.00
2023-05-24T00:26:13.190Z,0.00
2023-05-24T00:27:13.175Z,0.00
2023-05-24T00:28:13.172Z,0.00
2023-05-24T00:29:13.151Z,0.00
2023-05-24T00:30:13.148Z,0.00
2023-05-24T00:31:13.135Z,0.00
2023-05-24T00:32:13.505Z,0.00
2023-05-24T00:33:13.113Z,0.00
2023-05-24T00:34:13.104Z,0.00
2023-05-24T00:35:13.097Z,0.00
2023-05-24T00:36:13.080Z,0.00
2023-05-24T00:37:13.080Z,0.00
2023-05-24T00:38:13.073Z,0.00
2023-05-24T00:39:13.053Z,0.00
2023-05-24T00:40:13.058Z,0.00
2023-05-24T00:41:13.029Z,0.00
2023-05-24T00:42:13.028Z,0.00
2023-05-24T00:43:13.008Z,0.00
2023-05-24T00:44:12.998Z,0.00
2023-05-24T00:45:13.016Z,0.00
2023-05-24T00:46:12.977Z,0.00
2023-05-24T00:47:12.998Z,0.00
2023-05-24T00:48:12.966Z,0.00
2023-05-24T00:49:12.944Z,0.00
2023-05-24T00:50:12.949Z,0.00
2023-05-24T00:51:12.965Z,0.00
2023-05-24T00:52:12.947Z,0.00
2023-05-24T00:53:12.904Z,0.00
2023-05-24T00:54:12.934Z,0.00
2023-05-24T00:55:12.880Z,0.00
2023-05-24T00:56:12.918Z,0.00
2023-05-24T00:57:12.884Z,0.00
2023-05-24T00:58:12.865Z,0.00
2023-05-24T00:59:12.849Z,0.00
2023-05-24T01:00:12.840Z,0.00
2023-05-24T01:01:12.945Z,0.00
2023-05-24T01:02:12.888Z,0.00
2023-05-24T01:03:12.947Z,0.00
2023-05-24T01:04:12.808Z,0.00
2023-05-24T01:05:12.798Z,0.00
2023-05-24T01:06:12.985Z,0.00
2023-05-24T01:07:12.766Z,0.00
2023-05-24T01:08:12.764Z,0.00
2023-05-24T01:09:12.753Z,0.00
2023-05-24T01:10:12.761Z,0.00
2023-05-24T01:11:12.739Z,0.00
2023-05-24T01:12:12.719Z,0.00
2023-05-24T01:13:12.714Z,0.00
2023-05-24T01:14:12.702Z,0.00
2023-05-24T01:15:12.721Z,0.00
2023-05-24T01:16:12.753Z,0.00
2023-05-24T01:17:12.674Z,0.00
2023-05-24T01:18:12.671Z,0.00
2023-05-24T01:19:12.660Z,0.00
2023-05-24T01:20:12.664Z,0.00
2023-05-24T01:21:12.659Z,0.00
2023-05-24T01:22:12.628Z,0.00
2023-05-24T01:23:12.616Z,0.00
2023-05-24T01:24:12.618Z,0.00
2023-05-24T01:25:12.598Z,0.00
2023-05-24T01:26:12.588Z,0.00
2023-05-24T01:27:12.589Z,0.00
2023-05-24T01:28:12.572Z,0.00
2023-05-24T01:29:12.568Z,0.00
2023-05-24T01:30:12.556Z,0.00
2023-05-24T01:31:12.561Z,0.00
2023-05-24T01:32:12.519Z,0.00
2023-05-24T01:33:12.523Z,0.00
2023-05-24T01:34:12.521Z,0.00
2023-05-24T01:35:12.499Z,0.00
2023-05-24T01:36:12.492Z,0.00
2023-05-24T01:37:12.483Z,0.00
2023-05-24T01:38:12.488Z,0.00
2023-05-24T01:39:12.457Z,0.00
2023-05-24T01:40:12.446Z,0.00
2023-05-24T01:41:12.435Z,0.00
2023-05-24T01:42:12.421Z,0.00
2023-05-24T01:43:12.426Z,0.00
2023-05-24T01:44:12.401Z,0.00
2023-05-24T01:45:12.392Z,0.00
2023-05-24T01:46:12.390Z,0.00
2023-05-24T01:47:12.420Z,0.00
2023-05-24T01:48:12.373Z,0.00
2023-05-24T01:49:12.354Z,0.00
2023-05-24T01:50:12.344Z,0.00
2023-05-24T01:51:12.336Z,0.00
2023-05-24T01:52:12.370Z,0.00
2023-05-24T01:53:12.312Z,0.00
2023-05-24T01:54:12.328Z,0.00
2023-05-24T01:55:12.292Z,0.00
2023-05-24T01:56:12.280Z,0.00
2023-05-24T01:57:12.274Z,0.00
2023-05-24T01:58:12.260Z,0.00
2023-05-24T01:59:12.249Z,0.00
2023-05-24T02:00:12.234Z,0.00
2023-05-24T02:01:12.265Z,0.00
2023-05-24T02:02:12.248Z,0.00
2023-05-24T02:03:12.273Z,0.00
2023-05-24T02:04:12.192Z,0.00
2023-05-24T02:05:12.193Z,0.00
2023-05-24T02:06:12.191Z,0.00
2023-05-24T02:07:12.182Z,0.00
2023-05-24T02:08:12.174Z,0.00
2023-05-24T02:09:12.147Z,0.00
2023-05-24T02:10:12.135Z,0.00
2023-05-24T02:11:12.148Z,0.00
2023-05-24T02:12:12.116Z,0.00
2023-05-24T02:13:12.111Z,0.00
2023-05-24T02:14:12.096Z,0.00
2023-05-24T02:15:12.089Z,0.00
2023-05-24T02:16:12.099Z,0.00
2023-05-24T02:17:12.070Z,0.00
2023-05-24T02:18:12.062Z,0.00
2023-05-24T02:19:12.056Z,0.00
2023-05-24T02:20:12.096Z,0.00
2023-05-24T02:21:12.069Z,0.00
2023-05-24T02:22:12.029Z,0.00
2023-05-24T02:23:12.018Z,0.00
2023-05-24T02:24:12.010Z,0.00
2023-05-24T02:25:12.007Z,0.00
2023-05-24T02:26:11.987Z,0.00
2023-05-24T02:27:11.978Z,0.00
2023-05-24T02:28:11.979Z,0.00
2023-05-24T02:29:12.001Z,0.00
2023-05-24T02:30:11.965Z,0.00
2023-05-24T02:31:11.992Z,0.00
2023-05-24T02:32:11.949Z,0.00
2023-05-24T02:33:11.920Z,0.00
2023-05-24T02:34:11.916Z,0.00
2023-05-24T02:35:11.922Z,0.00
2023-05-24T02:36:11.903Z,0.00
2023-05-24T02:37:11.883Z,0.00
2023-05-24T02:38:11.877Z,0.00
2023-05-24T02:39:11.894Z,0.00
2023-05-24T02:40:11.869Z,0.00
2023-05-24T02:41:11.875Z,0.00
2023-05-24T02:42:11.844Z,0.00
2023-05-24T02:43:11.831Z,0.00
2023-05-24T02:44:11.833Z,0.00
2023-05-24T02:45:11.805Z,0.00
2023-05-24T02:46:11.822Z,0.00
2023-05-24T02:47:11.793Z,0.00
2023-05-24T02:48:11.787Z,4.00
2023-05-24T02:49:11.786Z,4.00
2023-05-24T02:50:11.767Z,0.00
2023-05-24T02:51:11.757Z,0.00
2023-05-24T02:52:11.747Z,4.00
2023-05-24T02:53:11.806Z,4.00
2023-05-24T02:54:11.742Z,0.00
2023-05-24T02:55:11.715Z,4.00
2023-05-24T02:56:11.709Z,4.00
2023-05-24T02:57:11.714Z,4.00
2023-05-24T02:58:11.696Z,4.00
2023-05-24T02:59:11.687Z,8.00
2023-05-24T03:00:11.671Z,8.00
2023-05-24T03:01:11.673Z,8.00
2023-05-24T03:02:11.647Z,8.00
2023-05-24T03:03:11.731Z,8.00
2023-05-24T03:04:11.700Z,8.00
2023-05-24T03:05:11.614Z,12.00
2023-05-24T03:06:11.612Z,12.00
2023-05-24T03:07:11.624Z,16.00
2023-05-24T03:08:11.602Z,16.00
2023-05-24T03:09:11.577Z,20.00
2023-05-24T03:10:12.601Z,20.00
2023-05-24T03:11:11.559Z,24.00
2023-05-24T03:12:11.570Z,24.00
2023-05-24T03:13:11.541Z,28.00
2023-05-24T03:14:11.533Z,32.00
2023-05-24T03:15:11.521Z,36.00
2023-05-24T03:16:11.558Z,40.00
2023-05-24T03:17:11.532Z,44.00
2023-05-24T03:18:11.574Z,48.00
2023-05-24T03:19:11.505Z,52.00
2023-05-24T03:20:11.518Z,56.00
2023-05-24T03:21:11.696Z,60.00
2023-05-24T03:22:11.505Z,64.00
2023-05-24T03:23:11.449Z,68.00
2023-05-24T03:24:11.440Z,76.00
2023-05-24T03:25:11.452Z,80.00
2023-05-24T03:26:11.437Z,88.00
2023-05-24T03:27:11.415Z,92.00
2023-05-24T03:28:11.406Z,100.00
2023-05-24T03:29:11.413Z,104.00
2023-05-24T03:30:11.396Z,112.00
2023-05-24T03:31:11.399Z,124.00
2023-05-24T03:32:11.369Z,136.00
2023-05-24T03:33:11.384Z,140.00
2023-05-24T03:34:11.351Z,152.00
2023-05-24T03:35:11.350Z,156.00
2023-05-24T03:36:11.348Z,164.00
2023-05-24T03:37:11.329Z,176.00
2023-05-24T03:38:11.311Z,184.00
2023-05-24T03:39:11.306Z,192.00
2023-05-24T03:40:11.310Z,204.00
2023-05-24T03:41:11.283Z,208.00
2023-05-24T03:42:11.281Z,220.00
2023-05-24T03:43:11.269Z,232.00
2023-05-24T03:44:11.252Z,240.00
2023-05-24T03:45:11.255Z,248.00
2023-05-24T03:46:11.273Z,256.00
2023-05-24T03:47:11.219Z,268.00
2023-05-24T03:48:11.213Z,280.00
2023-05-24T03:49:11.216Z,304.00
2023-05-24T03:50:11.215Z,300.00
2023-05-24T03:51:11.189Z,300.00
2023-05-24T03:52:11.177Z,336.00
2023-05-24T03:53:11.170Z,364.00
2023-05-24T03:54:11.167Z,364.00
2023-05-24T03:55:11.150Z,388.00
2023-05-24T03:56:11.146Z,396.00
2023-05-24T03:57:11.131Z,396.00
2023-05-24T03:58:11.122Z,404.00
2023-05-24T03:59:11.119Z,384.00
2023-05-24T04:00:11.111Z,384.00
2023-05-24T04:01:12.653Z,384.00
2023-05-24T04:02:13.111Z,376.00
2023-05-24T04:03:11.175Z,364.00
2023-05-24T04:04:11.117Z,364.00
2023-05-24T04:05:11.051Z,348.00
2023-05-24T04:06:11.042Z,384.00
2023-05-24T04:07:11.036Z,420.00
2023-05-24T04:08:11.036Z,428.00
2023-05-24T04:09:11.021Z,416.00
2023-05-24T04:10:10.997Z,428.00
2023-05-24T04:11:11.991Z,404.00
2023-05-24T04:12:10.981Z,404.00
2023-05-24T04:13:10.986Z,416.00
2023-05-24T04:14:10.962Z,432.00
2023-05-24T04:15:10.956Z,484.00
2023-05-24T04:16:10.944Z,492.00
2023-05-24T04:17:11.020Z,460.00
2023-05-24T04:18:11.063Z,420.00
2023-05-24T04:19:10.921Z,420.00
2023-05-24T04:20:10.929Z,444.00
2023-05-24T04:21:10.892Z,432.00
2023-05-24T04:22:10.898Z,428.00
2023-05-24T04:23:10.887Z,440.00
2023-05-24T04:24:10.859Z,440.00
2023-05-24T04:25:10.894Z,440.00
2023-05-24T04:26:10.844Z,448.00
2023-05-24T04:27:10.851Z,448.00
2023-05-24T04:28:10.830Z,412.00
2023-05-24T04:29:10.821Z,372.00
2023-05-24T04:30:10.813Z,372.00
2023-05-24T04:31:36.753Z,396.00
2023-05-24T04:32:10.782Z,424.00
2023-05-24T04:33:10.833Z,440.00
2023-05-24T04:34:10.772Z,452.00
2023-05-24T04:35:10.760Z,484.00
2023-05-24T04:36:10.765Z,504.00
2023-05-24T04:37:10.778Z,492.00
2023-05-24T04:38:10.735Z,496.00
2023-05-24T04:39:10.727Z,532.00
2023-05-24T04:40:10.713Z,536.00
2023-05-24T04:41:10.720Z,492.00
2023-05-24T04:42:10.699Z,444.00
2023-05-24T04:43:10.694Z,448.00
2023-05-24T04:44:10.677Z,488.00
2023-05-24T04:45:10.679Z,448.00
2023-05-24T04:46:10.666Z,416.00
2023-05-24T04:47:10.676Z,416.00
2023-05-24T04:48:10.636Z,440.00
2023-05-24T04:49:10.643Z,420.00
2023-05-24T04:50:10.630Z,412.00
2023-05-24T04:51:10.631Z,428.00
2023-05-24T04:52:10.612Z,432.00
2023-05-24T04:53:10.589Z,392.00
2023-05-24T04:54:10.583Z,344.00
2023-05-24T04:55:10.579Z,328.00
2023-05-24T04:56:10.565Z,352.00
2023-05-24T04:57:10.554Z,404.00
2023-05-24T04:58:10.796Z,440.00
2023-05-24T04:59:10.573Z,444.00
2023-05-24T05:00:10.538Z,428.00
2023-05-24T05:01:10.550Z,436.00
2023-05-24T05:02:10.548Z,428.00
2023-05-24T05:03:10.582Z,416.00
2023-05-24T05:04:10.608Z,372.00
2023-05-24T05:05:10.489Z,368.00
2023-05-24T05:06:10.473Z,368.00
2023-05-24T05:07:10.466Z,372.00
2023-05-24T05:08:10.451Z,376.00
2023-05-24T05:09:10.452Z,396.00
2023-05-24T05:10:10.435Z,456.00
2023-05-24T05:11:10.423Z,492.00
2023-05-24T05:12:10.414Z,504.00
2023-05-24T05:13:10.400Z,516.00
2023-05-24T05:14:10.405Z,532.00
2023-05-24T05:15:10.416Z,528.00
2023-05-24T05:16:10.384Z,552.00
2023-05-24T05:17:10.355Z,636.00
2023-05-24T05:18:11.376Z,676.00
2023-05-24T05:19:10.366Z,724.00
2023-05-24T05:20:10.397Z,752.00
2023-05-24T05:21:10.348Z,820.00
2023-05-24T05:22:10.315Z,860.00
2023-05-24T05:23:10.338Z,932.00
2023-05-24T05:24:10.317Z,1012.00
2023-05-24T05:25:10.291Z,1112.00
2023-05-24T05:26:10.274Z,1304.00
2023-05-24T05:27:10.272Z,1660.00
2023-05-24T05:28:10.271Z,1684.00
2023-05-24T05:29:10.253Z,1760.00
2023-05-24T05:30:10.239Z,1936.00
2023-05-24T05:31:10.227Z,2084.00
2023-05-24T05:32:10.322Z,2424.00
2023-05-24T05:33:10.275Z,2528.00
2023-05-24T05:34:10.200Z,2036.00
2023-05-24T05:35:10.201Z,1992.00
2023-05-24T05:36:10.180Z,2132.00
2023-05-24T05:37:10.188Z,2028.00
2023-05-24T05:38:10.213Z,1936.00
2023-05-24T05:39:10.178Z,1884.00
2023-05-24T05:40:10.137Z,1708.00
2023-05-24T05:41:10.159Z,1476.00
2023-05-24T05:42:10.136Z,1188.00
2023-05-24T05:43:10.124Z,984.00
2023-05-24T05:44:10.111Z,1012.00
2023-05-24T05:45:10.116Z,1184.00
2023-05-24T05:46:10.151Z,1304.00
2023-05-24T05:47:10.086Z,1200.00
2023-05-24T05:48:10.094Z,1176.00
2023-05-24T05:49:10.062Z,1132.00
2023-05-24T05:50:10.053Z,928.00
2023-05-24T05:51:10.049Z,980.00
2023-05-24T05:52:10.033Z,1136.00
2023-05-24T05:53:10.016Z,1136.00
2023-05-24T05:54:10.003Z,1004.00
2023-05-24T05:55:09.996Z,860.00
2023-05-24T05:56:09.992Z,832.00
2023-05-24T05:57:09.969Z,752.00
2023-05-24T05:58:10.054Z,760.00
2023-05-24T05:59:09.947Z,836.00
2023-05-24T06:00:09.975Z,856.00
2023-05-24T06:01:09.939Z,816.00
2023-05-24T06:02:09.928Z,768.00
2023-05-24T06:03:10.005Z,828.00
2023-05-24T06:04:09.941Z,908.00
2023-05-24T06:05:09.901Z,872.00
2023-05-24T06:06:09.885Z,732.00
2023-05-24T06:07:09.861Z,732.00
2023-05-24T06:08:09.871Z,852.00
2023-05-24T06:09:09.856Z,992.00
2023-05-24T06:10:09.858Z,1096.00
2023-05-24T06:11:09.878Z,1096.00
2023-05-24T06:12:09.812Z,1116.00
2023-05-24T06:13:09.940Z,1188.00
2023-05-24T06:14:09.797Z,1168.00
2023-05-24T06:15:09.834Z,1332.00
2023-05-24T06:16:09.784Z,1460.00
2023-05-24T06:17:09.866Z,1548.00
2023-05-24T06:18:09.756Z,1712.00
2023-05-24T06:19:09.752Z,1912.00
2023-05-24T06:20:09.819Z,2100.00
2023-05-24T06:21:09.723Z,2200.00
2023-05-24T06:22:09.715Z,2396.00
2023-05-24T06:23:09.709Z,2516.00
2023-05-24T06:24:09.735Z,2668.00
2023-05-24T06:25:10.685Z,2840.00
2023-05-24T06:26:09.679Z,2868.00
2023-05-24T06:27:09.657Z,2824.00
2023-05-24T06:28:09.654Z,2916.00
2023-05-24T06:29:09.649Z,2964.00
2023-05-24T06:30:09.691Z,3044.00
2023-05-24T06:31:09.733Z,3168.00
2023-05-24T06:32:09.628Z,3292.00
2023-05-24T06:33:09.614Z,3344.00
2023-05-24T06:34:09.603Z,3432.00
2023-05-24T06:35:09.592Z,3544.00
2023-05-24T06:36:09.577Z,3596.00
2023-05-24T06:37:09.563Z,3924.00
2023-05-24T06:38:10.529Z,4184.00
2023-05-24T06:39:09.555Z,3780.00
2023-05-24T06:40:09.634Z,4432.00
2023-05-24T06:41:09.542Z,3824.00
2023-05-24T06:42:09.505Z,3724.00
2023-05-24T06:43:09.504Z,3596.00
2023-05-24T06:44:09.535Z,3356.00
2023-05-24T06:45:09.517Z,2996.00
2023-05-24T06:46:09.480Z,2600.00
2023-05-24T06:47:09.572Z,2608.00
2023-05-24T06:48:09.558Z,2656.00
2023-05-24T06:49:09.500Z,2724.00
2023-05-24T06:50:09.439Z,2572.00
2023-05-24T06:51:09.410Z,2572.00
2023-05-24T06:52:09.407Z,2504.00
2023-05-24T06:53:09.401Z,2320.00
2023-05-24T06:54:09.405Z,2072.00
2023-05-24T06:55:09.375Z,2072.00
2023-05-24T06:56:09.364Z,2052.00
2023-05-24T06:57:09.384Z,2120.00
2023-05-24T06:58:09.354Z,2252.00
2023-05-24T06:59:09.333Z,2096.00
2023-05-24T07:00:09.325Z,2112.00
2023-05-24T07:01:09.319Z,2264.00
2023-05-24T07:02:09.333Z,2280.00
2023-05-24T07:03:09.324Z,2456.00
2023-05-24T07:04:09.283Z,2484.00
2023-05-24T07:05:09.281Z,2548.00
2023-05-24T07:06:09.261Z,2624.00
2023-05-24T07:07:09.266Z,2368.00
2023-05-24T07:08:09.259Z,2208.00
2023-05-24T07:09:09.223Z,2152.00
2023-05-24T07:10:09.212Z,2360.00
2023-05-24T07:11:09.253Z,2416.00
2023-05-24T07:12:09.415Z,2244.00
2023-05-24T07:13:09.175Z,2328.00
2023-05-24T07:14:09.161Z,2500.00
2023-05-24T07:15:09.165Z,2348.00
2023-05-24T07:16:09.166Z,2392.00
2023-05-24T07:17:09.281Z,2500.00
2023-05-24T07:18:09.146Z,2464.00
2023-05-24T07:19:09.118Z,2468.00
2023-05-24T07:20:09.207Z,2544.00
2023-05-24T07:21:09.168Z,2660.00
2023-05-24T07:22:09.096Z,2920.00
2023-05-24T07:23:09.160Z,3096.00
2023-05-24T07:24:09.076Z,3304.00
2023-05-24T07:25:09.064Z,3524.00
2023-05-24T07:26:09.062Z,3748.00
2023-05-24T07:27:09.031Z,4100.00
2023-05-24T07:28:09.055Z,3928.00
2023-05-24T07:29:09.006Z,3984.00
2023-05-24T07:30:19.666Z,4244.00
2023-05-24T07:31:10.994Z,4616.00
2023-05-24T07:32:09.030Z,6224.00
2023-05-24T07:33:09.034Z,6288.00
2023-05-24T07:34:08.970Z,5452.00
2023-05-24T07:35:08.968Z,4620.00
2023-05-24T07:36:08.949Z,5228.00
2023-05-24T07:37:08.980Z,5828.00
2023-05-24T07:38:08.926Z,5868.00
2023-05-24T07:39:08.916Z,5724.00
2023-05-24T07:40:08.908Z,5676.00
2023-05-24T07:41:08.885Z,5792.00
2023-05-24T07:42:08.916Z,6884.00
2023-05-24T07:43:08.873Z,5952.00
2023-05-24T07:44:08.870Z,5240.00
2023-05-24T07:45:08.875Z,4784.00
2023-05-24T07:46:08.957Z,4952.00
2023-05-24T07:47:08.837Z,4468.00
2023-05-24T07:48:08.914Z,4272.00
2023-05-24T07:49:08.822Z,4080.00
2023-05-24T07:50:08.808Z,3976.00
2023-05-24T07:51:08.790Z,4004.00
2023-05-24T07:52:08.781Z,4556.00
2023-05-24T07:53:08.784Z,4556.00
2023-05-24T07:54:08.758Z,3780.00
2023-05-24T07:55:08.768Z,4076.00
2023-05-24T07:56:08.734Z,3512.00
2023-05-24T07:57:09.511Z,2824.00
2023-05-24T07:58:09.770Z,2764.00
2023-05-24T07:59:08.706Z,2736.00
2023-05-24T08:00:08.698Z,2660.00
2023-05-24T08:01:08.685Z,2604.00
2023-05-24T08:02:08.689Z,2600.00
2023-05-24T08:03:08.742Z,2684.00
2023-05-24T08:04:08.747Z,2808.00
2023-05-24T08:05:08.661Z,2896.00
2023-05-24T08:06:08.633Z,3144.00
2023-05-24T08:07:10.872Z,3340.00
2023-05-24T08:08:09.638Z,3820.00
2023-05-24T08:09:08.626Z,3760.00
2023-05-24T08:10:08.589Z,3828.00
2023-05-24T08:11:08.580Z,3808.00
2023-05-24T08:12:08.582Z,3584.00
2023-05-24T08:13:08.567Z,3608.00
2023-05-24T08:14:08.552Z,3432.00
2023-05-24T08:15:08.560Z,3436.00
2023-05-24T08:16:08.578Z,3872.00
2023-05-24T08:17:08.532Z,3584.00
2023-05-24T08:18:08.536Z,3572.00
2023-05-24T08:19:08.519Z,3632.00
2023-05-24T08:20:08.531Z,3836.00
2023-05-24T08:21:08.492Z,4164.00
2023-05-24T08:22:08.464Z,4492.00
2023-05-24T08:23:08.459Z,4460.00
2023-05-24T08:24:09.668Z,5516.00
2023-05-24T08:25:09.456Z,5524.00
2023-05-24T08:26:08.436Z,5724.00
2023-05-24T08:27:08.416Z,5748.00
2023-05-24T08:28:08.477Z,5912.00
2023-05-24T08:29:08.400Z,4484.00
2023-05-24T08:30:08.386Z,4392.00
2023-05-24T08:31:08.380Z,4116.00
2023-05-24T08:32:08.411Z,3948.00
2023-05-24T08:33:08.393Z,4024.00
2023-05-24T08:34:08.344Z,3856.00
2023-05-24T08:35:20.315Z,3972.00
2023-05-24T08:36:10.336Z,4188.00
2023-05-24T08:37:08.319Z,4260.00
2023-05-24T08:38:08.304Z,4448.00
2023-05-24T08:39:08.291Z,5464.00
2023-05-24T08:40:08.299Z,5808.00
2023-05-24T08:41:08.313Z,5740.00
2023-05-24T08:42:10.189Z,6076.00
2023-05-24T08:43:09.252Z,6176.00
2023-05-24T08:44:08.252Z,6404.00
2023-05-24T08:45:08.259Z,6228.00
2023-05-24T08:46:08.275Z,6324.00
2023-05-24T08:47:08.219Z,6484.00
2023-05-24T08:48:08.269Z,6716.00
2023-05-24T08:49:08.400Z,6860.00
2023-05-24T08:50:08.208Z,6856.00
2023-05-24T08:51:08.176Z,7460.00
2023-05-24T08:52:08.169Z,7088.00
2023-05-24T08:53:08.161Z,7160.00
2023-05-24T08:54:08.160Z,6972.00
2023-05-24T08:55:08.134Z,6828.00
2023-05-24T08:56:08.127Z,6924.00
2023-05-24T08:57:08.205Z,6908.00
2023-05-24T08:58:08.111Z,6912.00
2023-05-24T08:59:08.115Z,6728.00
2023-05-24T09:00:08.085Z,6432.00
2023-05-24T09:01:08.096Z,6188.00
2023-05-24T09:02:08.149Z,5304.00
2023-05-24T09:03:08.167Z,4800.00
2023-05-24T09:04:08.092Z,4612.00
2023-05-24T09:05:08.044Z,4588.00
2023-05-24T09:06:08.033Z,4536.00
2023-05-24T09:07:08.020Z,4556.00
2023-05-24T09:08:08.030Z,4420.00
2023-05-24T09:09:08.001Z,4252.00
2023-05-24T09:10:07.991Z,4140.00
2023-05-24T09:11:07.993Z,4064.00
2023-05-24T09:12:07.978Z,4016.00
2023-05-24T09:13:07.976Z,4092.00
2023-05-24T09:14:07.964Z,4192.00
2023-05-24T09:15:08.213Z,4244.00
2023-05-24T09:16:07.972Z,4252.00
2023-05-24T09:17:07.958Z,4324.00
2023-05-24T09:18:07.945Z,4416.00
2023-05-24T09:19:07.915Z,4516.00
2023-05-24T09:20:07.978Z,4604.00
2023-05-24T09:21:07.900Z,4784.00
2023-05-24T09:22:07.890Z,4976.00
2023-05-24T09:23:07.884Z,5072.00
2023-05-24T09:24:07.853Z,5128.00
2023-05-24T09:25:07.877Z,5212.00
2023-05-24T09:26:07.844Z,5324.00
2023-05-24T09:27:07.846Z,5452.00
2023-05-24T09:28:07.826Z,5516.00
2023-05-24T09:29:07.813Z,5532.00
2023-05-24T09:30:07.820Z,5512.00
2023-05-24T09:31:08.412Z,5456.00
2023-05-24T09:32:08.794Z,5416.00
2023-05-24T09:33:07.771Z,5340.00
2023-05-24T09:34:07.759Z,5320.00
2023-05-24T09:35:07.737Z,5460.00
2023-05-24T09:36:07.742Z,5680.00
2023-05-24T09:37:07.725Z,5888.00
2023-05-24T09:38:07.713Z,6284.00
2023-05-24T09:39:07.714Z,6800.00
2023-05-24T09:40:07.703Z,7620.00
2023-05-24T09:41:07.701Z,6664.00
2023-05-24T09:42:07.685Z,6220.00
2023-05-24T09:43:07.702Z,5860.00
2023-05-24T09:44:07.657Z,5928.00
2023-05-24T09:45:07.797Z,6112.00
2023-05-24T09:46:07.663Z,6360.00
2023-05-24T09:47:07.690Z,7516.00
2023-05-24T09:48:07.628Z,6200.00
2023-05-24T09:49:08.629Z,5984.00
2023-05-24T09:50:07.597Z,6216.00
2023-05-24T09:51:07.668Z,5912.00
2023-05-24T09:52:07.599Z,5888.00
2023-05-24T09:53:07.568Z,6552.00
2023-05-24T09:54:07.565Z,7940.00
2023-05-24T09:55:07.562Z,7780.00
2023-05-24T09:56:07.543Z,7772.00
2023-05-24T09:57:07.518Z,7824.00
2023-05-24T09:58:07.534Z,8264.00
2023-05-24T09:59:07.535Z,8692.00
2023-05-24T10:00:07.490Z,8612.00
2023-05-24T10:01:07.695Z,8632.00
2023-05-24T10:02:07.482Z,6688.00
2023-05-24T10:03:07.583Z,6376.00
2023-05-24T10:04:09.782Z,6116.00
2023-05-24T10:05:08.447Z,5888.00
2023-05-24T10:06:07.449Z,5268.00
2023-05-24T10:07:07.422Z,5236.00
2023-05-24T10:08:07.423Z,5228.00
2023-05-24T10:09:07.421Z,5560.00
2023-05-24T10:10:07.710Z,6924.00
2023-05-24T10:11:08.386Z,9628.00
2023-05-24T10:12:07.389Z,6380.00
2023-05-24T10:13:07.375Z,9020.00
2023-05-24T10:14:07.349Z,5548.00
2023-05-24T10:15:07.345Z,11664.00
2023-05-24T10:16:07.335Z,12792.00
2023-05-24T10:17:07.390Z,10952.00
2023-05-24T10:18:08.185Z,10060.00
2023-05-24T10:19:07.366Z,5324.00
2023-05-24T10:20:07.356Z,5044.00
2023-05-24T10:21:07.324Z,4820.00
2023-05-24T10:22:07.291Z,4760.00
2023-05-24T10:23:07.275Z,4908.00
2023-05-24T10:24:08.990Z,4940.00
2023-05-24T10:25:07.258Z,5016.00
2023-05-24T10:26:07.248Z,5068.00
2023-05-24T10:27:07.254Z,5128.00
2023-05-24T10:28:07.227Z,5220.00
2023-05-24T10:29:07.214Z,5200.00
2023-05-24T10:30:09.448Z,4840.00
2023-05-24T10:31:08.274Z,4872.00
2023-05-24T10:32:33.146Z,4928.00
2023-05-24T10:33:07.227Z,4928.00
2023-05-24T10:34:08.670Z,4884.00
2023-05-24T10:35:08.172Z,4796.00
2023-05-24T10:36:09.445Z,4756.00
2023-05-24T10:37:08.138Z,4844.00
2023-05-24T10:38:07.121Z,4448.00
2023-05-24T10:39:07.104Z,4252.00
2023-05-24T10:40:07.103Z,4388.00
2023-05-24T10:41:07.114Z,10560.00
2023-05-24T10:42:09.406Z,28032.00
2023-05-24T10:43:07.071Z,5216.00
2023-05-24T10:44:10.201Z,31104.00
2023-05-24T10:45:08.048Z,29088.00
2023-05-24T10:46:07.074Z,26272.00
2023-05-24T10:47:07.033Z,24576.00
2023-05-24T10:48:07.113Z,23456.00
2023-05-24T10:49:07.001Z,12780.00
2023-05-24T10:50:07.005Z,4536.00
2023-05-24T10:51:06.994Z,4116.00
2023-05-24T10:52:06.970Z,4264.00
2023-05-24T10:53:06.961Z,3904.00
2023-05-24T10:54:08.812Z,3740.00
2023-05-24T10:55:07.968Z,3740.00
2023-05-24T10:56:06.937Z,3960.00
2023-05-24T10:57:06.928Z,4436.00
2023-05-24T10:58:06.916Z,5436.00
2023-05-24T10:59:06.911Z,10472.00
2023-05-24T11:00:08.477Z,7928.00
2023-05-24T11:01:06.900Z,12128.00
2023-05-24T11:02:06.951Z,6240.00
2023-05-24T11:03:06.989Z,4836.00
2023-05-24T11:04:06.867Z,3996.00
2023-05-24T11:05:06.890Z,3588.00
2023-05-24T11:06:06.903Z,3332.00
2023-05-24T11:07:06.903Z,3108.00
2023-05-24T11:08:06.818Z,2972.00
2023-05-24T11:09:06.820Z,2928.00
2023-05-24T11:10:06.807Z,2964.00
2023-05-24T11:11:22.020Z,3000.00
2023-05-24T11:12:08.780Z,3060.00
2023-05-24T11:13:06.775Z,3108.00
2023-05-24T11:14:06.774Z,3176.00
2023-05-24T11:15:06.754Z,3264.00
2023-05-24T11:16:06.783Z,3392.00
2023-05-24T11:17:06.739Z,3564.00
2023-05-24T11:18:06.802Z,3748.00
2023-05-24T11:19:06.737Z,3940.00
2023-05-24T11:20:06.763Z,4148.00
2023-05-24T11:21:06.695Z,4400.00
2023-05-24T11:22:06.698Z,4772.00
2023-05-24T11:23:06.683Z,5292.00
2023-05-24T11:24:06.675Z,6304.00
2023-05-24T11:25:06.667Z,6216.00
2023-05-24T11:26:06.661Z,6708.00
2023-05-24T11:27:06.656Z,6972.00
2023-05-24T11:28:06.689Z,18432.00
2023-05-24T11:29:06.613Z,11212.00
2023-05-24T11:30:06.605Z,5576.00
2023-05-24T11:31:06.623Z,5000.00
2023-05-24T11:32:06.638Z,4724.00
2023-05-24T11:33:06.608Z,4768.00
2023-05-24T11:34:06.562Z,5396.00
2023-05-24T11:35:06.648Z,6152.00
2023-05-24T11:36:06.558Z,24288.00
2023-05-24T11:37:06.548Z,23744.00
2023-05-24T11:38:06.521Z,15616.00
2023-05-24T11:39:06.530Z,16256.00
2023-05-24T11:40:06.525Z,5852.00
2023-05-24T11:41:06.498Z,5088.00
2023-05-24T11:42:06.515Z,4848.00
2023-05-24T11:43:06.486Z,4708.00
2023-05-24T11:44:06.471Z,4312.00
2023-05-24T11:45:06.455Z,4176.00
2023-05-24T11:46:06.553Z,4240.00
2023-05-24T11:47:06.431Z,4408.00
2023-05-24T11:48:06.446Z,4576.00
2023-05-24T11:49:06.416Z,4712.00
2023-05-24T11:50:06.415Z,4900.00
2023-05-24T11:51:06.404Z,4992.00
2023-05-24T11:52:07.016Z,5048.00
2023-05-24T11:53:06.374Z,5036.00
2023-05-24T11:54:06.357Z,5168.00
2023-05-24T11:55:06.364Z,5424.00
2023-05-24T11:56:06.348Z,5696.00
2023-05-24T11:57:06.383Z,6228.00
2023-05-24T11:58:06.321Z,6936.00
2023-05-24T11:59:06.312Z,7720.00
2023-05-24T12:00:06.329Z,7720.00
2023-05-24T12:01:06.286Z,6960.00
2023-05-24T12:02:06.433Z,6760.00
2023-05-24T12:03:06.309Z,7308.00
2023-05-24T12:04:06.391Z,9948.00
2023-05-24T12:05:06.485Z,9192.00
2023-05-24T12:06:06.242Z,7356.00
2023-05-24T12:07:06.234Z,7232.00
2023-05-24T12:08:06.235Z,7404.00
2023-05-24T12:09:06.217Z,7472.00
2023-05-24T12:10:06.220Z,7584.00
2023-05-24T12:11:06.190Z,8100.00
2023-05-24T12:12:06.175Z,8484.00
2023-05-24T12:13:06.167Z,8048.00
2023-05-24T12:14:06.179Z,12832.00
2023-05-24T12:15:06.146Z,19328.00
2023-05-24T12:16:06.166Z,9412.00
2023-05-24T12:17:06.132Z,10312.00
2023-05-24T12:18:07.163Z,11992.00
2023-05-24T12:19:11.867Z,19296.00
2023-05-24T12:20:08.160Z,20384.00
2023-05-24T12:21:06.091Z,15904.00
2023-05-24T12:22:06.252Z,8564.00
2023-05-24T12:23:06.082Z,23008.00
2023-05-24T12:24:06.076Z,24384.00
2023-05-24T12:25:06.055Z,23424.00
2023-05-24T12:26:06.048Z,23936.00
2023-05-24T12:27:06.028Z,21152.00